Huvudsida
METAR-TAF:

METAR-TAF

Flygplatser :

Molde flygplats. Årø

Molde, Norge

latitud: 62-45N, longitud: 007-16E, höjd: 0 m

Aktuellt väderrapport

Denna rapport gjordes för 35 minuter sedan, klockan 09:20 UTC
Vind 9 kt från nordost
Temperatur -7°C
Fuktighet 67%
Tryck 1028 hPa
Sikt 10 km eller mer
Inga moln under 1 500 m eller inga cumulonimbus

METAR: ENML 150920Z 04009KT CAVOK M07/M12 Q1028

Tid: 10:55 (09:55 UTC)

Väderprognos

Denna rapport gjordes för 1 timme och 55 minuter sedan, klockan 08:00 UTC
Prognos gäller från 15 kl. 09 UTC till 15 kl. 18 UTC
Vind 8 kt från nord/nordost
Sikt 10 km eller mer
Inga moln under 1 500 m eller inga cumulonimbus
Sannolikhet 40%
från 15 kl. 09 UTC till 15 kl. 18 UTC
Vind 15 kt från ost

TAF: ENML 150800Z 1509/1518 03008KT CAVOK PROB40 1509/1518 09015KT

Aktuella väderrapporter och prognoser från 4000 flygplatser (METAR- och TAF-rapporter).

De tillgängliga stationerna syns som gula och röda prickar på kartan.

För musen över prickarna för att se namnen på stationerna.

Klicka sedan för att få väderrapporter och prognoser.

För att ändra kartan: Klicka på de gröna knapparna med ett svart kors på för att zooma in; den gröna knappen med ett streck på för att zooma ut; eller på de gröna pilarna för angränsande kartor.


METAR-TAF: